sensor_id;sensor_type;location;lat;lon;timestamp;P1;durP1;ratioP1;P2;durP2;ratioP2
45208;SDS011;30951;43.994;26.260;2022-10-16T00:00:16;29.08;;;13.63;;
45208;SDS011;30951;43.994;26.260;2022-10-16T00:02:41;20.20;;;12.18;;
45208;SDS011;30951;43.994;26.260;2022-10-16T00:05:07;21.98;;;12.02;;
45208;SDS011;30951;43.994;26.260;2022-10-16T00:07:32;26.40;;;12.10;;
45208;SDS011;30951;43.994;26.260;2022-10-16T00:09:57;18.17;;;12.43;;
45208;SDS011;30951;43.994;26.260;2022-10-16T00:12:23;19.45;;;11.88;;
45208;SDS011;30951;43.994;26.260;2022-10-16T00:14:48;22.83;;;11.40;;
45208;SDS011;30951;43.994;26.260;2022-10-16T00:17:14;23.10;;;12.93;;
45208;SDS011;30951;43.994;26.260;2022-10-16T00:19:39;21.23;;;12.70;;
45208;SDS011;30951;43.994;26.260;2022-10-16T00:22:05;19.83;;;12.48;;
45208;SDS011;30951;43.994;26.260;2022-10-16T00:24:30;25.25;;;13.80;;
45208;SDS011;30951;43.994;26.260;2022-10-16T00:26:56;26.52;;;13.18;;
45208;SDS011;30951;43.994;26.260;2022-10-16T00:29:21;27.92;;;13.38;;
45208;SDS011;30951;43.994;26.260;2022-10-16T00:31:47;24.63;;;12.90;;
45208;SDS011;30951;43.994;26.260;2022-10-16T00:34:13;20.67;;;13.48;;
45208;SDS011;30951;43.994;26.260;2022-10-16T00:36:38;20.63;;;13.38;;
45208;SDS011;30951;43.994;26.260;2022-10-16T00:39:04;20.73;;;13.60;;
45208;SDS011;30951;43.994;26.260;2022-10-16T00:41:29;24.80;;;16.42;;
45208;SDS011;30951;43.994;26.260;2022-10-16T00:43:56;22.02;;;14.57;;
45208;SDS011;30951;43.994;26.260;2022-10-16T00:49:12;27.23;;;14.15;;
45208;SDS011;30951;43.994;26.260;2022-10-16T00:51:39;20.13;;;14.35;;
45208;SDS011;30951;43.994;26.260;2022-10-16T00:54:26;25.42;;;14.82;;
45208;SDS011;30951;43.994;26.260;2022-10-16T00:56:53;21.60;;;14.05;;
45208;SDS011;30951;43.994;26.260;2022-10-16T00:59:21;21.92;;;12.15;;
45208;SDS011;30951;43.994;26.260;2022-10-16T01:01:49;19.42;;;12.90;;
45208;SDS011;30951;43.994;26.260;2022-10-16T01:04:15;18.38;;;12.80;;
45208;SDS011;30951;43.994;26.260;2022-10-16T01:28:45;19.17;;;10.95;;
45208;SDS011;30951;43.994;26.260;2022-10-16T01:31:16;20.65;;;9.88;;
45208;SDS011;30951;43.994;26.260;2022-10-16T01:33:44;12.20;;;8.57;;
45208;SDS011;30951;43.994;26.260;2022-10-16T01:36:13;17.02;;;8.05;;
45208;SDS011;30951;43.994;26.260;2022-10-16T01:38:42;16.15;;;8.15;;
45208;SDS011;30951;43.994;26.260;2022-10-16T01:41:13;13.70;;;9.52;;
45208;SDS011;30951;43.994;26.260;2022-10-16T01:43:53;16.83;;;10.23;;
45208;SDS011;30951;43.994;26.260;2022-10-16T01:46:26;18.77;;;10.48;;
45208;SDS011;30951;43.994;26.260;2022-10-16T01:48:52;17.33;;;10.73;;
45208;SDS011;30951;43.994;26.260;2022-10-16T01:51:19;26.15;;;12.35;;
45208;SDS011;30951;43.994;26.260;2022-10-16T01:53:48;21.30;;;12.63;;
45208;SDS011;30951;43.994;26.260;2022-10-16T01:56:16;24.48;;;12.43;;
45208;SDS011;30951;43.994;26.260;2022-10-16T01:58:47;18.67;;;12.20;;
45208;SDS011;30951;43.994;26.260;2022-10-16T02:01:16;23.83;;;12.73;;
45208;SDS011;30951;43.994;26.260;2022-10-16T02:03:44;25.25;;;13.13;;
45208;SDS011;30951;43.994;26.260;2022-10-16T02:06:11;20.27;;;13.32;;
45208;SDS011;30951;43.994;26.260;2022-10-16T02:08:36;23.90;;;14.20;;
45208;SDS011;30951;43.994;26.260;2022-10-16T02:11:04;26.15;;;14.98;;
45208;SDS011;30951;43.994;26.260;2022-10-16T02:13:31;26.00;;;15.23;;
45208;SDS011;30951;43.994;26.260;2022-10-16T02:15:59;28.83;;;15.02;;
45208;SDS011;30951;43.994;26.260;2022-10-16T02:18:25;25.88;;;15.60;;
45208;SDS011;30951;43.994;26.260;2022-10-16T02:23:50;25.20;;;15.02;;
45208;SDS011;30951;43.994;26.260;2022-10-16T02:26:28;27.42;;;15.80;;
45208;SDS011;30951;43.994;26.260;2022-10-16T02:28:59;21.63;;;13.88;;
45208;SDS011;30951;43.994;26.260;2022-10-16T02:31:27;24.52;;;13.40;;
45208;SDS011;30951;43.994;26.260;2022-10-16T02:33:54;24.45;;;14.02;;
45208;SDS011;30951;43.994;26.260;2022-10-16T02:36:23;20.92;;;12.63;;
45208;SDS011;30951;43.994;26.260;2022-10-16T02:38:49;17.48;;;12.05;;
45208;SDS011;30951;43.994;26.260;2022-10-16T02:41:14;19.48;;;11.75;;
45208;SDS011;30951;43.994;26.260;2022-10-16T02:43:40;20.52;;;13.05;;
45208;SDS011;30951;43.994;26.260;2022-10-16T02:46:05;24.38;;;14.10;;
45208;SDS011;30951;43.994;26.260;2022-10-16T02:48:31;27.30;;;15.43;;
45208;SDS011;30951;43.994;26.260;2022-10-16T02:50:56;21.75;;;13.93;;
45208;SDS011;30951;43.994;26.260;2022-10-16T02:53:22;21.63;;;12.40;;
45208;SDS011;30951;43.994;26.260;2022-10-16T02:55:47;19.70;;;12.98;;
45208;SDS011;30951;43.994;26.260;2022-10-16T02:58:13;24.88;;;14.07;;
45208;SDS011;30951;43.994;26.260;2022-10-16T03:00:38;18.73;;;12.88;;
45208;SDS011;30951;43.994;26.260;2022-10-16T03:03:04;27.20;;;14.15;;
45208;SDS011;30951;43.994;26.260;2022-10-16T03:05:30;19.48;;;12.38;;
45208;SDS011;30951;43.994;26.260;2022-10-16T03:07:55;21.75;;;11.10;;
45208;SDS011;30951;43.994;26.260;2022-10-16T03:10:21;21.55;;;9.13;;
45208;SDS011;30951;43.994;26.260;2022-10-16T03:12:46;20.92;;;10.48;;
45208;SDS011;30951;43.994;26.260;2022-10-16T03:15:11;16.83;;;11.18;;
45208;SDS011;30951;43.994;26.260;2022-10-16T03:17:37;22.02;;;10.45;;
45208;SDS011;30951;43.994;26.260;2022-10-16T03:20:03;20.25;;;11.20;;
45208;SDS011;30951;43.994;26.260;2022-10-16T03:22:29;16.65;;;9.68;;
45208;SDS011;30951;43.994;26.260;2022-10-16T03:24:54;22.02;;;9.95;;
45208;SDS011;30951;43.994;26.260;2022-10-16T03:27:20;18.35;;;9.93;;
45208;SDS011;30951;43.994;26.260;2022-10-16T03:29:45;14.82;;;8.98;;
45208;SDS011;30951;43.994;26.260;2022-10-16T03:32:11;24.88;;;9.23;;
45208;SDS011;30951;43.994;26.260;2022-10-16T03:34:36;20.02;;;9.40;;
45208;SDS011;30951;43.994;26.260;2022-10-16T03:37:02;26.40;;;10.40;;
45208;SDS011;30951;43.994;26.260;2022-10-16T03:39:28;49.35;;;10.50;;
45208;SDS011;30951;43.994;26.260;2022-10-16T03:41:53;63.17;;;12.85;;
45208;SDS011;30951;43.994;26.260;2022-10-16T03:44:18;103.47;;;13.95;;
45208;SDS011;30951;43.994;26.260;2022-10-16T03:46:44;130.52;;;15.32;;
45208;SDS011;30951;43.994;26.260;2022-10-16T03:49:09;152.35;;;15.60;;
45208;SDS011;30951;43.994;26.260;2022-10-16T03:51:35;137.75;;;17.92;;
45208;SDS011;30951;43.994;26.260;2022-10-16T03:54:01;166.02;;;15.88;;
45208;SDS011;30951;43.994;26.260;2022-10-16T03:56:26;197.68;;;18.02;;
45208;SDS011;30951;43.994;26.260;2022-10-16T03:58:52;183.30;;;20.40;;
45208;SDS011;30951;43.994;26.260;2022-10-16T04:01:17;316.38;;;22.63;;
45208;SDS011;30951;43.994;26.260;2022-10-16T04:03:43;335.45;;;23.73;;
45208;SDS011;30951;43.994;26.260;2022-10-16T04:06:08;384.15;;;24.08;;
45208;SDS011;30951;43.994;26.260;2022-10-16T04:08:34;242.00;;;23.83;;
45208;SDS011;30951;43.994;26.260;2022-10-16T04:11:01;166.75;;;20.40;;
45208;SDS011;30951;43.994;26.260;2022-10-16T04:13:27;219.30;;;23.23;;
45208;SDS011;30951;43.994;26.260;2022-10-16T04:15:53;294.67;;;29.27;;
45208;SDS011;30951;43.994;26.260;2022-10-16T04:18:18;243.63;;;26.38;;
45208;SDS011;30951;43.994;26.260;2022-10-16T04:20:44;219.73;;;23.38;;
45208;SDS011;30951;43.994;26.260;2022-10-16T04:23:10;134.13;;;18.58;;
45208;SDS011;30951;43.994;26.260;2022-10-16T04:25:35;76.97;;;17.02;;
45208;SDS011;30951;43.994;26.260;2022-10-16T04:28:01;127.53;;;18.70;;
45208;SDS011;30951;43.994;26.260;2022-10-16T04:30:26;73.45;;;17.60;;
45208;SDS011;30951;43.994;26.260;2022-10-16T04:32:52;210.85;;;22.38;;
45208;SDS011;30951;43.994;26.260;2022-10-16T04:35:18;73.25;;;15.90;;
45208;SDS011;30951;43.994;26.260;2022-10-16T04:37:45;110.10;;;18.17;;
45208;SDS011;30951;43.994;26.260;2022-10-16T04:40:10;206.60;;;24.13;;
45208;SDS011;30951;43.994;26.260;2022-10-16T04:42:36;168.82;;;20.85;;
45208;SDS011;30951;43.994;26.260;2022-10-16T04:45:02;146.77;;;17.20;;
45208;SDS011;30951;43.994;26.260;2022-10-16T04:47:28;116.68;;;16.75;;
45208;SDS011;30951;43.994;26.260;2022-10-16T04:49:53;155.70;;;16.85;;
45208;SDS011;30951;43.994;26.260;2022-10-16T04:52:19;97.70;;;14.85;;
45208;SDS011;30951;43.994;26.260;2022-10-16T04:54:46;89.72;;;15.68;;
45208;SDS011;30951;43.994;26.260;2022-10-16T04:57:12;47.80;;;13.98;;
45208;SDS011;30951;43.994;26.260;2022-10-16T04:59:37;82.32;;;14.20;;
45208;SDS011;30951;43.994;26.260;2022-10-16T05:02:03;64.13;;;13.90;;
45208;SDS011;30951;43.994;26.260;2022-10-16T05:04:28;54.90;;;13.98;;
45208;SDS011;30951;43.994;26.260;2022-10-16T05:06:54;58.78;;;14.55;;
45208;SDS011;30951;43.994;26.260;2022-10-16T05:09:19;98.15;;;16.67;;
45208;SDS011;30951;43.994;26.260;2022-10-16T05:11:45;55.15;;;15.32;;
45208;SDS011;30951;43.994;26.260;2022-10-16T05:14:11;60.70;;;15.68;;
45208;SDS011;30951;43.994;26.260;2022-10-16T05:16:36;59.38;;;16.08;;
45208;SDS011;30951;43.994;26.260;2022-10-16T05:19:01;60.80;;;16.05;;
45208;SDS011;30951;43.994;26.260;2022-10-16T05:21:27;52.65;;;15.32;;
45208;SDS011;30951;43.994;26.260;2022-10-16T05:23:53;50.97;;;15.27;;
45208;SDS011;30951;43.994;26.260;2022-10-16T05:26:19;45.95;;;14.68;;
45208;SDS011;30951;43.994;26.260;2022-10-16T05:28:45;47.97;;;15.32;;
45208;SDS011;30951;43.994;26.260;2022-10-16T05:31:11;45.17;;;13.95;;
45208;SDS011;30951;43.994;26.260;2022-10-16T05:33:36;39.30;;;13.15;;
45208;SDS011;30951;43.994;26.260;2022-10-16T05:36:03;43.35;;;13.10;;
45208;SDS011;30951;43.994;26.260;2022-10-16T05:38:29;35.25;;;14.32;;
45208;SDS011;30951;43.994;26.260;2022-10-16T05:40:55;32.17;;;13.65;;
45208;SDS011;30951;43.994;26.260;2022-10-16T05:43:21;16.25;;;11.43;;
45208;SDS011;30951;43.994;26.260;2022-10-16T05:45:54;17.30;;;12.05;;
45208;SDS011;30951;43.994;26.260;2022-10-16T05:48:20;17.60;;;10.70;;
45208;SDS011;30951;43.994;26.260;2022-10-16T05:50:46;14.45;;;10.38;;
45208;SDS011;30951;43.994;26.260;2022-10-16T05:53:11;13.98;;;10.77;;
45208;SDS011;30951;43.994;26.260;2022-10-16T05:55:37;14.70;;;10.57;;
45208;SDS011;30951;43.994;26.260;2022-10-16T05:58:02;14.75;;;10.93;;
45208;SDS011;30951;43.994;26.260;2022-10-16T06:00:28;15.52;;;10.18;;
45208;SDS011;30951;43.994;26.260;2022-10-16T06:02:53;12.57;;;9.48;;
45208;SDS011;30951;43.994;26.260;2022-10-16T06:05:19;12.27;;;10.25;;
45208;SDS011;30951;43.994;26.260;2022-10-16T06:07:44;13.45;;;10.38;;
45208;SDS011;30951;43.994;26.260;2022-10-16T06:10:10;14.10;;;11.02;;
45208;SDS011;30951;43.994;26.260;2022-10-16T06:12:35;14.20;;;11.38;;
45208;SDS011;30951;43.994;26.260;2022-10-16T06:15:01;12.85;;;11.20;;
45208;SDS011;30951;43.994;26.260;2022-10-16T06:17:27;16.20;;;12.18;;
45208;SDS011;30951;43.994;26.260;2022-10-16T06:19:52;18.45;;;12.52;;
45208;SDS011;30951;43.994;26.260;2022-10-16T06:22:18;16.48;;;12.60;;
45208;SDS011;30951;43.994;26.260;2022-10-16T06:24:43;18.20;;;12.32;;
45208;SDS011;30951;43.994;26.260;2022-10-16T06:27:09;15.85;;;12.73;;
45208;SDS011;30951;43.994;26.260;2022-10-16T06:29:34;19.48;;;12.82;;
45208;SDS011;30951;43.994;26.260;2022-10-16T06:32:00;14.80;;;11.98;;
45208;SDS011;30951;43.994;26.260;2022-10-16T06:34:25;17.17;;;11.52;;
45208;SDS011;30951;43.994;26.260;2022-10-16T06:36:51;19.98;;;12.13;;
45208;SDS011;30951;43.994;26.260;2022-10-16T06:39:16;13.55;;;10.70;;
45208;SDS011;30951;43.994;26.260;2022-10-16T06:41:42;15.57;;;10.05;;
45208;SDS011;30951;43.994;26.260;2022-10-16T06:44:07;13.48;;;10.00;;
45208;SDS011;30951;43.994;26.260;2022-10-16T06:46:33;12.48;;;9.20;;
45208;SDS011;30951;43.994;26.260;2022-10-16T06:48:59;16.67;;;8.52;;
45208;SDS011;30951;43.994;26.260;2022-10-16T06:51:24;12.02;;;9.10;;
45208;SDS011;30951;43.994;26.260;2022-10-16T06:53:51;10.77;;;7.90;;
45208;SDS011;30951;43.994;26.260;2022-10-16T06:56:19;13.25;;;8.05;;
45208;SDS011;30951;43.994;26.260;2022-10-16T06:58:46;13.38;;;7.55;;
45208;SDS011;30951;43.994;26.260;2022-10-16T07:01:12;15.65;;;6.93;;
45208;SDS011;30951;43.994;26.260;2022-10-16T07:03:42;17.25;;;6.80;;
45208;SDS011;30951;43.994;26.260;2022-10-16T07:06:09;9.25;;;6.68;;
45208;SDS011;30951;43.994;26.260;2022-10-16T07:08:38;14.50;;;6.43;;
45208;SDS011;30951;43.994;26.260;2022-10-16T07:11:05;13.55;;;6.60;;
45208;SDS011;30951;43.994;26.260;2022-10-16T07:13:32;7.53;;;4.90;;
45208;SDS011;30951;43.994;26.260;2022-10-16T07:16:03;11.07;;;5.60;;
45208;SDS011;30951;43.994;26.260;2022-10-16T07:18:49;9.55;;;5.80;;
45208;SDS011;30951;43.994;26.260;2022-10-16T07:21:18;13.98;;;6.28;;
45208;SDS011;30951;43.994;26.260;2022-10-16T07:23:45;14.05;;;5.78;;
45208;SDS011;30951;43.994;26.260;2022-10-16T07:26:15;9.40;;;5.75;;
45208;SDS011;30951;43.994;26.260;2022-10-16T07:28:40;16.02;;;8.88;;
45208;SDS011;30951;43.994;26.260;2022-10-16T07:31:10;8.52;;;5.57;;
45208;SDS011;30951;43.994;26.260;2022-10-16T07:33:39;11.45;;;8.00;;
45208;SDS011;30951;43.994;26.260;2022-10-16T07:36:07;12.35;;;7.57;;
45208;SDS011;30951;43.994;26.260;2022-10-16T07:38:33;16.60;;;11.20;;
45208;SDS011;30951;43.994;26.260;2022-10-16T07:40:59;16.35;;;9.82;;
45208;SDS011;30951;43.994;26.260;2022-10-16T07:43:28;13.43;;;8.83;;
45208;SDS011;30951;43.994;26.260;2022-10-16T07:45:54;15.75;;;11.55;;
45208;SDS011;30951;43.994;26.260;2022-10-16T07:48:20;22.80;;;12.38;;
45208;SDS011;30951;43.994;26.260;2022-10-16T07:50:46;27.92;;;15.98;;
45208;SDS011;30951;43.994;26.260;2022-10-16T07:53:12;31.50;;;17.00;;
45208;SDS011;30951;43.994;26.260;2022-10-16T07:55:38;24.77;;;16.38;;
45208;SDS011;30951;43.994;26.260;2022-10-16T07:58:04;55.45;;;30.15;;
45208;SDS011;30951;43.994;26.260;2022-10-16T08:00:33;68.95;;;40.13;;
45208;SDS011;30951;43.994;26.260;2022-10-16T08:02:58;39.05;;;24.15;;
45208;SDS011;30951;43.994;26.260;2022-10-16T08:05:28;33.90;;;19.92;;
45208;SDS011;30951;43.994;26.260;2022-10-16T08:07:54;26.38;;;14.20;;
45208;SDS011;30951;43.994;26.260;2022-10-16T08:10:21;30.90;;;17.95;;
45208;SDS011;30951;43.994;26.260;2022-10-16T08:12:48;16.40;;;8.55;;
45208;SDS011;30951;43.994;26.260;2022-10-16T08:15:13;32.22;;;14.10;;
45208;SDS011;30951;43.994;26.260;2022-10-16T08:17:39;16.13;;;8.75;;
45208;SDS011;30951;43.994;26.260;2022-10-16T08:20:04;15.23;;;8.57;;
45208;SDS011;30951;43.994;26.260;2022-10-16T08:22:30;16.35;;;9.23;;
45208;SDS011;30951;43.994;26.260;2022-10-16T08:24:56;18.48;;;10.45;;
45208;SDS011;30951;43.994;26.260;2022-10-16T08:27:21;17.73;;;7.82;;
45208;SDS011;30951;43.994;26.260;2022-10-16T08:29:48;10.93;;;7.05;;
45208;SDS011;30951;43.994;26.260;2022-10-16T08:32:14;12.88;;;5.53;;
45208;SDS011;30951;43.994;26.260;2022-10-16T08:34:39;10.38;;;5.78;;
45208;SDS011;30951;43.994;26.260;2022-10-16T08:37:05;27.80;;;14.02;;
45208;SDS011;30951;43.994;26.260;2022-10-16T08:39:33;14.45;;;6.20;;
45208;SDS011;30951;43.994;26.260;2022-10-16T08:44:30;9.75;;;6.18;;
45208;SDS011;30951;43.994;26.260;2022-10-16T08:47:17;8.52;;;5.93;;
45208;SDS011;30951;43.994;26.260;2022-10-16T08:49:55;14.35;;;7.57;;
45208;SDS011;30951;43.994;26.260;2022-10-16T08:52:22;13.75;;;6.80;;
45208;SDS011;30951;43.994;26.260;2022-10-16T08:54:51;10.88;;;6.45;;
45208;SDS011;30951;43.994;26.260;2022-10-16T08:57:20;11.70;;;6.18;;
45208;SDS011;30951;43.994;26.260;2022-10-16T08:59:46;12.20;;;6.57;;
45208;SDS011;30951;43.994;26.260;2022-10-16T09:05:43;13.38;;;6.90;;
45208;SDS011;30951;43.994;26.260;2022-10-16T09:08:34;13.50;;;7.50;;
45208;SDS011;30951;43.994;26.260;2022-10-16T09:16:30;11.90;;;7.45;;
45208;SDS011;30951;43.994;26.260;2022-10-16T09:19:00;13.25;;;7.68;;
45208;SDS011;30951;43.994;26.260;2022-10-16T09:21:31;11.80;;;7.72;;
45208;SDS011;30951;43.994;26.260;2022-10-16T09:24:08;13.30;;;7.55;;
45208;SDS011;30951;43.994;26.260;2022-10-16T09:26:36;17.35;;;8.93;;
45208;SDS011;30951;43.994;26.260;2022-10-16T09:29:02;17.70;;;11.15;;
45208;SDS011;30951;43.994;26.260;2022-10-16T09:31:27;13.95;;;7.50;;
45208;SDS011;30951;43.994;26.260;2022-10-16T09:33:54;11.88;;;8.32;;
45208;SDS011;30951;43.994;26.260;2022-10-16T09:36:23;12.13;;;6.47;;
45208;SDS011;30951;43.994;26.260;2022-10-16T09:38:48;12.65;;;7.13;;
45208;SDS011;30951;43.994;26.260;2022-10-16T09:41:21;9.63;;;6.95;;
45208;SDS011;30951;43.994;26.260;2022-10-16T09:46:41;13.57;;;6.75;;
45208;SDS011;30951;43.994;26.260;2022-10-16T09:49:18;15.70;;;6.35;;
45208;SDS011;30951;43.994;26.260;2022-10-16T09:51:51;10.35;;;6.20;;
45208;SDS011;30951;43.994;26.260;2022-10-16T09:54:31;15.50;;;6.55;;
45208;SDS011;30951;43.994;26.260;2022-10-16T09:57:07;13.18;;;6.10;;
45208;SDS011;30951;43.994;26.260;2022-10-16T09:59:44;12.50;;;6.00;;
45208;SDS011;30951;43.994;26.260;2022-10-16T10:02:11;13.45;;;6.28;;
45208;SDS011;30951;43.994;26.260;2022-10-16T10:04:52;12.25;;;5.20;;
45208;SDS011;30951;43.994;26.260;2022-10-16T10:07:26;13.40;;;5.95;;
45208;SDS011;30951;43.994;26.260;2022-10-16T10:09:53;8.82;;;5.25;;
45208;SDS011;30951;43.994;26.260;2022-10-16T10:12:21;11.90;;;5.47;;
45208;SDS011;30951;43.994;26.260;2022-10-16T10:14:52;9.18;;;4.53;;
45208;SDS011;30951;43.994;26.260;2022-10-16T10:17:23;7.75;;;5.07;;
45208;SDS011;30951;43.994;26.260;2022-10-16T10:19:59;12.77;;;6.67;;
45208;SDS011;30951;43.994;26.260;2022-10-16T10:22:39;10.07;;;5.60;;
45208;SDS011;30951;43.994;26.260;2022-10-16T10:27:51;7.38;;;5.40;;
45208;SDS011;30951;43.994;26.260;2022-10-16T10:30:27;14.98;;;6.00;;
45208;SDS011;30951;43.994;26.260;2022-10-16T10:46:45;7.43;;;4.68;;
45208;SDS011;30951;43.994;26.260;2022-10-16T10:57:41;7.38;;;4.18;;
45208;SDS011;30951;43.994;26.260;2022-10-16T11:10:44;10.40;;;4.13;;
45208;SDS011;30951;43.994;26.260;2022-10-16T11:13:21;13.23;;;4.43;;
45208;SDS011;30951;43.994;26.260;2022-10-16T11:15:51;9.07;;;4.10;;
45208;SDS011;30951;43.994;26.260;2022-10-16T11:18:24;7.38;;;4.25;;
45208;SDS011;30951;43.994;26.260;2022-10-16T11:20:57;12.60;;;4.45;;
45208;SDS011;30951;43.994;26.260;2022-10-16T11:26:19;6.95;;;4.53;;
45208;SDS011;30951;43.994;26.260;2022-10-16T11:28:48;8.75;;;4.10;;
45208;SDS011;30951;43.994;26.260;2022-10-16T11:34:05;11.38;;;4.07;;
45208;SDS011;30951;43.994;26.260;2022-10-16T11:36:49;7.78;;;3.92;;
45208;SDS011;30951;43.994;26.260;2022-10-16T11:39:20;8.40;;;3.92;;
45208;SDS011;30951;43.994;26.260;2022-10-16T11:44:53;5.60;;;3.42;;
45208;SDS011;30951;43.994;26.260;2022-10-16T11:50:09;6.95;;;3.47;;
45208;SDS011;30951;43.994;26.260;2022-10-16T11:52:44;8.48;;;4.20;;
45208;SDS011;30951;43.994;26.260;2022-10-16T12:00:47;11.52;;;3.58;;
45208;SDS011;30951;43.994;26.260;2022-10-16T12:08:45;9.90;;;3.78;;
45208;SDS011;30951;43.994;26.260;2022-10-16T12:11:31;7.97;;;3.45;;
45208;SDS011;30951;43.994;26.260;2022-10-16T12:14:06;7.25;;;3.72;;
45208;SDS011;30951;43.994;26.260;2022-10-16T12:19:20;9.38;;;3.70;;
45208;SDS011;30951;43.994;26.260;2022-10-16T12:21:46;8.52;;;3.42;;
45208;SDS011;30951;43.994;26.260;2022-10-16T12:26:57;4.85;;;3.13;;
45208;SDS011;30951;43.994;26.260;2022-10-16T12:29:38;5.10;;;3.22;;
45208;SDS011;30951;43.994;26.260;2022-10-16T12:32:05;13.38;;;3.80;;
45208;SDS011;30951;43.994;26.260;2022-10-16T12:34:48;11.90;;;3.25;;
45208;SDS011;30951;43.994;26.260;2022-10-16T12:37:24;11.90;;;3.80;;
45208;SDS011;30951;43.994;26.260;2022-10-16T12:39:51;12.75;;;3.40;;
45208;SDS011;30951;43.994;26.260;2022-10-16T12:42:50;11.18;;;3.47;;
45208;SDS011;30951;43.994;26.260;2022-10-16T12:47:54;6.93;;;3.28;;
45208;SDS011;30951;43.994;26.260;2022-10-16T12:50:31;8.10;;;2.80;;
45208;SDS011;30951;43.994;26.260;2022-10-16T12:52:59;3.88;;;2.65;;
45208;SDS011;30951;43.994;26.260;2022-10-16T12:55:26;5.75;;;2.83;;
45208;SDS011;30951;43.994;26.260;2022-10-16T13:05:56;4.72;;;2.63;;
45208;SDS011;30951;43.994;26.260;2022-10-16T13:08:49;5.28;;;2.83;;
45208;SDS011;30951;43.994;26.260;2022-10-16T13:11:25;5.85;;;3.20;;
45208;SDS011;30951;43.994;26.260;2022-10-16T13:22:43;7.63;;;3.35;;
45208;SDS011;30951;43.994;26.260;2022-10-16T13:27:54;9.00;;;2.50;;
45208;SDS011;30951;43.994;26.260;2022-10-16T13:32:50;6.07;;;2.72;;
45208;SDS011;30951;43.994;26.260;2022-10-16T13:35:23;4.15;;;2.40;;
45208;SDS011;30951;43.994;26.260;2022-10-16T13:37:50;5.82;;;2.95;;
45208;SDS011;30951;43.994;26.260;2022-10-16T13:40:23;6.88;;;2.85;;
45208;SDS011;30951;43.994;26.260;2022-10-16T13:42:50;10.38;;;3.13;;
45208;SDS011;30951;43.994;26.260;2022-10-16T13:45:23;6.35;;;2.80;;
45208;SDS011;30951;43.994;26.260;2022-10-16T13:48:00;5.88;;;2.40;;
45208;SDS011;30951;43.994;26.260;2022-10-16T13:50:29;4.65;;;2.72;;
45208;SDS011;30951;43.994;26.260;2022-10-16T13:53:12;8.52;;;3.00;;
45208;SDS011;30951;43.994;26.260;2022-10-16T13:55:38;11.98;;;3.63;;
45208;SDS011;30951;43.994;26.260;2022-10-16T13:58:05;7.97;;;2.60;;
45208;SDS011;30951;43.994;26.260;2022-10-16T14:00:36;8.20;;;3.33;;
45208;SDS011;30951;43.994;26.260;2022-10-16T14:03:03;5.03;;;2.80;;
45208;SDS011;30951;43.994;26.260;2022-10-16T14:05:36;7.18;;;2.80;;
45208;SDS011;30951;43.994;26.260;2022-10-16T14:08:11;7.88;;;2.88;;
45208;SDS011;30951;43.994;26.260;2022-10-16T14:10:37;8.00;;;2.70;;
45208;SDS011;30951;43.994;26.260;2022-10-16T14:13:04;8.70;;;2.75;;
45208;SDS011;30951;43.994;26.260;2022-10-16T14:15:31;6.55;;;2.70;;
45208;SDS011;30951;43.994;26.260;2022-10-16T14:17:58;6.30;;;2.80;;
45208;SDS011;30951;43.994;26.260;2022-10-16T14:20:25;6.38;;;2.70;;
45208;SDS011;30951;43.994;26.260;2022-10-16T14:29:03;3.55;;;2.67;;
45208;SDS011;30951;43.994;26.260;2022-10-16T14:31:36;6.32;;;2.78;;
45208;SDS011;30951;43.994;26.260;2022-10-16T14:34:02;5.55;;;2.85;;
45208;SDS011;30951;43.994;26.260;2022-10-16T14:36:28;10.70;;;3.15;;
45208;SDS011;30951;43.994;26.260;2022-10-16T14:39:04;6.05;;;3.30;;
45208;SDS011;30951;43.994;26.260;2022-10-16T14:41:45;13.23;;;3.28;;
45208;SDS011;30951;43.994;26.260;2022-10-16T14:44:12;8.10;;;3.25;;
45208;SDS011;30951;43.994;26.260;2022-10-16T14:46:39;6.30;;;2.70;;
45208;SDS011;30951;43.994;26.260;2022-10-16T14:51:35;6.75;;;3.20;;
45208;SDS011;30951;43.994;26.260;2022-10-16T14:54:01;11.55;;;3.45;;
45208;SDS011;30951;43.994;26.260;2022-10-16T14:56:31;10.30;;;2.92;;
45208;SDS011;30951;43.994;26.260;2022-10-16T14:59:00;8.75;;;2.67;;
45208;SDS011;30951;43.994;26.260;2022-10-16T15:01:26;4.82;;;2.92;;
45208;SDS011;30951;43.994;26.260;2022-10-16T15:03:51;7.47;;;3.55;;
45208;SDS011;30951;43.994;26.260;2022-10-16T15:06:20;12.65;;;3.53;;
45208;SDS011;30951;43.994;26.260;2022-10-16T15:08:46;7.82;;;3.42;;
45208;SDS011;30951;43.994;26.260;2022-10-16T15:11:12;11.30;;;3.00;;
45208;SDS011;30951;43.994;26.260;2022-10-16T15:13:39;7.25;;;3.10;;
45208;SDS011;30951;43.994;26.260;2022-10-16T15:16:07;15.02;;;3.53;;
45208;SDS011;30951;43.994;26.260;2022-10-16T15:18:35;10.15;;;3.15;;
45208;SDS011;30951;43.994;26.260;2022-10-16T15:21:00;6.72;;;3.13;;
45208;SDS011;30951;43.994;26.260;2022-10-16T15:23:25;21.50;;;4.03;;
45208;SDS011;30951;43.994;26.260;2022-10-16T15:25:52;11.68;;;3.35;;
45208;SDS011;30951;43.994;26.260;2022-10-16T15:28:19;5.72;;;3.53;;
45208;SDS011;30951;43.994;26.260;2022-10-16T15:30:45;20.42;;;3.08;;
45208;SDS011;30951;43.994;26.260;2022-10-16T15:33:15;10.77;;;3.25;;
45208;SDS011;30951;43.994;26.260;2022-10-16T15:35:42;11.30;;;3.60;;
45208;SDS011;30951;43.994;26.260;2022-10-16T15:38:11;8.55;;;4.45;;
45208;SDS011;30951;43.994;26.260;2022-10-16T15:40:37;9.30;;;3.38;;
45208;SDS011;30951;43.994;26.260;2022-10-16T15:43:03;9.02;;;3.65;;
45208;SDS011;30951;43.994;26.260;2022-10-16T15:45:29;9.85;;;3.42;;
45208;SDS011;30951;43.994;26.260;2022-10-16T15:47:54;16.55;;;3.55;;
45208;SDS011;30951;43.994;26.260;2022-10-16T15:50:20;11.15;;;3.72;;
45208;SDS011;30951;43.994;26.260;2022-10-16T15:52:45;14.07;;;4.32;;
45208;SDS011;30951;43.994;26.260;2022-10-16T15:55:12;16.67;;;3.53;;
45208;SDS011;30951;43.994;26.260;2022-10-16T15:57:39;14.23;;;4.28;;
45208;SDS011;30951;43.994;26.260;2022-10-16T16:00:10;11.18;;;4.18;;
45208;SDS011;30951;43.994;26.260;2022-10-16T16:02:37;16.48;;;3.20;;
45208;SDS011;30951;43.994;26.260;2022-10-16T16:05:03;10.48;;;3.42;;
45208;SDS011;30951;43.994;26.260;2022-10-16T16:07:32;20.60;;;3.10;;
45208;SDS011;30951;43.994;26.260;2022-10-16T16:09:58;8.98;;;3.42;;
45208;SDS011;30951;43.994;26.260;2022-10-16T16:12:24;13.90;;;3.08;;
45208;SDS011;30951;43.994;26.260;2022-10-16T16:14:49;11.23;;;3.45;;
45208;SDS011;30951;43.994;26.260;2022-10-16T16:17:16;13.73;;;3.20;;
45208;SDS011;30951;43.994;26.260;2022-10-16T16:19:42;11.70;;;3.55;;
45208;SDS011;30951;43.994;26.260;2022-10-16T16:22:07;16.13;;;3.83;;
45208;SDS011;30951;43.994;26.260;2022-10-16T16:24:33;7.18;;;3.45;;
45208;SDS011;30951;43.994;26.260;2022-10-16T16:26:58;6.88;;;3.83;;
45208;SDS011;30951;43.994;26.260;2022-10-16T16:29:24;15.23;;;5.35;;
45208;SDS011;30951;43.994;26.260;2022-10-16T16:31:49;25.77;;;6.03;;
45208;SDS011;30951;43.994;26.260;2022-10-16T16:34:15;16.80;;;4.72;;
45208;SDS011;30951;43.994;26.260;2022-10-16T16:36:40;12.38;;;5.70;;
45208;SDS011;30951;43.994;26.260;2022-10-16T16:39:06;17.38;;;6.38;;
45208;SDS011;30951;43.994;26.260;2022-10-16T16:41:32;16.27;;;8.05;;